Ag Nektarios Aiginas — SX7083 — position and weather

sailwx.info

Track history (hours):
 
Tides and Currents Weather Stations Pressure Air Temp Water Temp Dewpoint Dewpoint Depression Visibility Wind Speed Wind Dir Waves Ship Positions

Ag Nektarios Aiginas

Last reported at 2017-Jan-10 09:33 UTC. Time now 2017-Jan-20 20:15 UTC.
Position N 37°57' E 023°36'.
Warning: this ship's position is 10 days out of date.

Length 75 m; draft 2.7 m.

Type: Passenger vessel. MMSI: 237021400.

Date/timePositionNaut miles runAvg speedWind from/ knotsBaromVisibWave heightAir tempDewpointWater temp
2017-Jan-10 09:33N 37°57' E 023°36'0 0.0
2017-Jan-10 08:33N 37°57' E 023°36'0 0.0
2017-Jan-09 14:33N 37°57' E 023°36'0 0.0
2017-Jan-09 13:33N 37°57' E 023°36'0 0.0
2017-Jan-09 12:33N 37°57' E 023°36'2 1.8
2017-Jan-09 11:33N 37°57' E 023°39'0 0.0
2017-Jan-09 10:33N 37°57' E 023°39'0 0.0
2017-Jan-09 09:33N 37°57' E 023°39'0 0.0
2017-Jan-09 08:33N 37°57' E 023°39'0 0.0
2017-Jan-09 07:33N 37°57' E 023°39'2 0.1
2017-Jan-08 17:33N 37°55' E 023°36'1312.7
2017-Jan-08 16:34N 37°46' E 023°25'2 1.5
2017-Jan-08 15:33N 37°45' E 023°25'1312.9
2017-Jan-08 14:34N 37°55' E 023°36'2 1.5
2017-Jan-08 13:34N 37°56' E 023°37'1312.6
2017-Jan-08 12:34N 37°47' E 023°26'1 1.0
2017-Jan-08 11:32N 37°46' E 023°25'1313.0
2017-Jan-08 10:34N 37°55' E 023°36'0 0.4
2017-Jan-08 09:34N 37°55' E 023°36'1212.2
2017-Jan-08 08:34N 37°46' E 023°25'3 2.9
2017-Jan-08 07:33N 37°48' E 023°28'1212.1
2017-Jan-08 06:34N 37°57' E 023°38'0 0.1
2017-Jan-08 05:33N 37°57' E 023°38'0 0.0
2017-Jan-07 18:03N 37°57' E 023°38'3 5.9
2017-Jan-07 17:34N 37°54' E 023°36'1212.4
2017-Jan-07 16:34N 37°46' E 023°25'1 0.6
2017-Jan-07 15:30N 37°45' E 023°25'1313.2
2017-Jan-07 14:33N 37°54' E 023°35'1 1.2
2017-Jan-07 13:33N 37°55' E 023°36'1212.4
2017-Jan-07 12:33N 37°46' E 023°25'2 1.5
2017-Jan-07 11:33N 37°45' E 023°25'1313.0
2017-Jan-07 10:33N 37°55' E 023°35'1 0.8
2017-Jan-07 09:33N 37°55' E 023°36'1212.4
2017-Jan-07 08:34N 37°46' E 023°25'2 2.1
2017-Jan-07 07:33N 37°48' E 023°27'1212.5
2017-Jan-07 06:33N 37°57' E 023°38'0 0.2
2017-Jan-07 05:29N 37°57' E 023°39'0 0.0
2017-Jan-06 18:08N 37°57' E 023°38'3 4.4
2017-Jan-06 17:34N 37°55' E 023°36'1212.0
2017-Jan-06 16:34N 37°46' E 023°25'1 1.3
2017-Jan-06 15:33N 37°45' E 023°25'1312.8
2017-Jan-06 14:34N 37°54' E 023°36'0 0.5
2017-Jan-06 13:34N 37°54' E 023°37'1212.2
2017-Jan-06 12:34N 37°46' E 023°25'1 1.4
2017-Jan-06 11:33N 37°47' E 023°26'1212.5
2017-Jan-06 10:34N 37°56' E 023°37'6 5.6
2017-Jan-06 09:34N 37°51' E 023°36'1010.4
2017-Jan-06 08:33N 37°45' E 023°25'5 4.8
2017-Jan-06 07:33N 37°48' E 023°30'1111.2
2017-Jan-06 06:33N 37°57' E 023°38'0 0.1
2017-Jan-06 05:34N 37°57' E 023°39'2 0.2
2017-Jan-05 17:33N 37°55' E 023°37'1312.5
2017-Jan-05 16:33N 37°46' E 023°25'0 0.3
2017-Jan-05 15:33N 37°46' E 023°25'1312.6
2017-Jan-05 14:33N 37°55' E 023°36'1 0.9
2017-Jan-05 13:33N 37°54' E 023°36'1312.5
2017-Jan-05 12:33N 37°45' E 023°25'0 0.4
2017-Jan-05 11:33N 37°46' E 023°25'1312.6
2017-Jan-05 10:34N 37°55' E 023°36'1 0.5
2017-Jan-05 09:34N 37°55' E 023°36'1313.0
2017-Jan-05 08:34N 37°46' E 023°25'3 3.4
2017-Jan-05 07:34N 37°48' E 023°28'1212.0
2017-Jan-05 06:34N 37°57' E 023°39'0 0.0
2017-Jan-05 05:34N 37°57' E 023°39'3 0.2
2017-Jan-04 17:34N 37°55' E 023°36'1313.1
2017-Jan-04 16:34N 37°46' E 023°25'1 0.8
2017-Jan-04 15:34N 37°45' E 023°25'1312.6
2017-Jan-04 14:33N 37°55' E 023°35'3 2.6
2017-Jan-04 13:33N 37°56' E 023°38'1313.2
2017-Jan-04 12:33N 37°47' E 023°26'2 2.3
2017-Jan-04 11:33N 37°45' E 023°25'1312.8
2017-Jan-04 10:33N 37°55' E 023°35'2 2.4
2017-Jan-04 09:34N 37°56' E 023°37'1313.1
2017-Jan-04 08:33N 37°47' E 023°26'1 1.3
2017-Jan-04 07:33N 37°48' E 023°27'1312.6
2017-Jan-04 06:33N 37°57' E 023°38'0 0.1
2017-Jan-04 05:33N 37°57' E 023°39'1 0.1
2017-Jan-03 17:33N 37°56' E 023°37'1313.3
2017-Jan-03 16:33N 37°46' E 023°25'1 1.2
2017-Jan-03 15:33N 37°45' E 023°25'1312.9
2017-Jan-03 14:33N 37°55' E 023°36'1 1.2
2017-Jan-03 13:33N 37°56' E 023°36'1313.1
2017-Jan-03 12:33N 37°46' E 023°25'3 2.9
2017-Jan-03 11:33N 37°48' E 023°28'1211.8
2017-Jan-03 10:33N 37°57' E 023°38'5 4.5
2017-Jan-03 09:33N 37°53' E 023°34'1110.9
2017-Jan-03 08:32N 37°45' E 023°25'4 3.7
2017-Jan-03 07:33N 37°48' E 023°28'1212.2
2017-Jan-03 06:33N 37°57' E 023°38'0 0.1
2017-Jan-03 05:31N 37°57' E 023°38'1 0.1
2017-Jan-02 17:34N 37°56' E 023°37'1413.5
2017-Jan-02 16:33N 37°46' E 023°25'1 1.5
2017-Jan-02 15:33N 37°45' E 023°25'1312.8
2017-Jan-02 14:34N 37°55' E 023°35'2 2.3
2017-Jan-02 13:34N 37°56' E 023°37'1313.2
2017-Jan-02 12:33N 37°47' E 023°26'2 2.0
2017-Jan-02 11:33N 37°45' E 023°25'1312.7
2017-Jan-02 10:34N 37°54' E 023°35'2 2.2
2017-Jan-02 09:33N 37°56' E 023°37'1312.9
2017-Jan-02 08:33N 37°47' E 023°26'2 2.0
2017-Jan-02 07:33N 37°48' E 023°28'1212.1
2017-Jan-02 06:33N 37°57' E 023°38'2 0.1
2016-Dec-31 17:33N 37°55' E 023°37'1312.8
2016-Dec-31 16:33N 37°46' E 023°25'1 1.5
2016-Dec-31 15:33N 37°45' E 023°25'1312.9
2016-Dec-31 14:33N 37°54' E 023°36'2 1.7
2016-Dec-31 13:33N 37°56' E 023°37'1312.9
2016-Dec-31 12:33N 37°47' E 023°26'2 1.7
2016-Dec-31 11:33N 37°45' E 023°25'1312.9
2016-Dec-31 10:33N 37°55' E 023°36'  
Track history (hours):
 
Tides and Currents Weather Stations Pressure Air Temp Water Temp Dewpoint Dewpoint Depression Visibility Wind Speed Wind Dir Waves Ship Positions

Ag Nektarios Aiginas

Last reported at 2017-Jan-10 09:33 UTC. Time now 2017-Jan-20 20:15 UTC.
Position N 37°57' E 023°36'.
Warning: this ship's position is 10 days out of date.

Length 75 m; draft 2.7 m.

Type: Passenger vessel. MMSI: 237021400.

Date/timePositionNaut miles runAvg speedWind from/ knotsBaromVisibWave heightAir tempDewpointWater temp
2017-Jan-10 09:33N 37°57' E 023°36'0 0.0
2017-Jan-10 08:33N 37°57' E 023°36'0 0.0
2017-Jan-09 14:33N 37°57' E 023°36'0 0.0
2017-Jan-09 13:33N 37°57' E 023°36'0 0.0
2017-Jan-09 12:33N 37°57' E 023°36'2 1.8
2017-Jan-09 11:33N 37°57' E 023°39'0 0.0
2017-Jan-09 10:33N 37°57' E 023°39'0 0.0
2017-Jan-09 09:33N 37°57' E 023°39'0 0.0
2017-Jan-09 08:33N 37°57' E 023°39'0 0.0
2017-Jan-09 07:33N 37°57' E 023°39'2 0.1
2017-Jan-08 17:33N 37°55' E 023°36'1312.7
2017-Jan-08 16:34N 37°46' E 023°25'2 1.5
2017-Jan-08 15:33N 37°45' E 023°25'1312.9
2017-Jan-08 14:34N 37°55' E 023°36'2 1.5
2017-Jan-08 13:34N 37°56' E 023°37'1312.6
2017-Jan-08 12:34N 37°47' E 023°26'1 1.0
2017-Jan-08 11:32N 37°46' E 023°25'1313.0
2017-Jan-08 10:34N 37°55' E 023°36'0 0.4
2017-Jan-08 09:34N 37°55' E 023°36'1212.2
2017-Jan-08 08:34N 37°46' E 023°25'3 2.9
2017-Jan-08 07:33N 37°48' E 023°28'1212.1
2017-Jan-08 06:34N 37°57' E 023°38'0 0.1
2017-Jan-08 05:33N 37°57' E 023°38'0 0.0
2017-Jan-07 18:03N 37°57' E 023°38'3 5.9
2017-Jan-07 17:34N 37°54' E 023°36'1212.4
2017-Jan-07 16:34N 37°46' E 023°25'1 0.6
2017-Jan-07 15:30N 37°45' E 023°25'1313.2
2017-Jan-07 14:33N 37°54' E 023°35'1 1.2
2017-Jan-07 13:33N 37°55' E 023°36'1212.4
2017-Jan-07 12:33N 37°46' E 023°25'2 1.5
2017-Jan-07 11:33N 37°45' E 023°25'1313.0
2017-Jan-07 10:33N 37°55' E 023°35'1 0.8
2017-Jan-07 09:33N 37°55' E 023°36'1212.4
2017-Jan-07 08:34N 37°46' E 023°25'2 2.1
2017-Jan-07 07:33N 37°48' E 023°27'1212.5
2017-Jan-07 06:33N 37°57' E 023°38'0 0.2
2017-Jan-07 05:29N 37°57' E 023°39'0 0.0
2017-Jan-06 18:08N 37°57' E 023°38'3 4.4
2017-Jan-06 17:34N 37°55' E 023°36'1212.0
2017-Jan-06 16:34N 37°46' E 023°25'1 1.3
2017-Jan-06 15:33N 37°45' E 023°25'1312.8
2017-Jan-06 14:34N 37°54' E 023°36'0 0.5
2017-Jan-06 13:34N 37°54' E 023°37'1212.2
2017-Jan-06 12:34N 37°46' E 023°25'1 1.4
2017-Jan-06 11:33N 37°47' E 023°26'1212.5
2017-Jan-06 10:34N 37°56' E 023°37'6 5.6
2017-Jan-06 09:34N 37°51' E 023°36'1010.4
2017-Jan-06 08:33N 37°45' E 023°25'5 4.8
2017-Jan-06 07:33N 37°48' E 023°30'1111.2
2017-Jan-06 06:33N 37°57' E 023°38'0 0.1
2017-Jan-06 05:34N 37°57' E 023°39'2 0.2
2017-Jan-05 17:33N 37°55' E 023°37'1312.5
2017-Jan-05 16:33N 37°46' E 023°25'0 0.3
2017-Jan-05 15:33N 37°46' E 023°25'1312.6
2017-Jan-05 14:33N 37°55' E 023°36'1 0.9
2017-Jan-05 13:33N 37°54' E 023°36'1312.5
2017-Jan-05 12:33N 37°45' E 023°25'0 0.4
2017-Jan-05 11:33N 37°46' E 023°25'1312.6
2017-Jan-05 10:34N 37°55' E 023°36'1 0.5
2017-Jan-05 09:34N 37°55' E 023°36'1313.0
2017-Jan-05 08:34N 37°46' E 023°25'3 3.4
2017-Jan-05 07:34N 37°48' E 023°28'1212.0
2017-Jan-05 06:34N 37°57' E 023°39'0 0.0
2017-Jan-05 05:34N 37°57' E 023°39'3 0.2
2017-Jan-04 17:34N 37°55' E 023°36'1313.1
2017-Jan-04 16:34N 37°46' E 023°25'1 0.8
2017-Jan-04 15:34N 37°45' E 023°25'1312.6
2017-Jan-04 14:33N 37°55' E 023°35'3 2.6
2017-Jan-04 13:33N 37°56' E 023°38'1313.2
2017-Jan-04 12:33N 37°47' E 023°26'2 2.3
2017-Jan-04 11:33N 37°45' E 023°25'1312.8
2017-Jan-04 10:33N 37°55' E 023°35'2 2.4
2017-Jan-04 09:34N 37°56' E 023°37'1313.1
2017-Jan-04 08:33N 37°47' E 023°26'1 1.3
2017-Jan-04 07:33N 37°48' E 023°27'1312.6
2017-Jan-04 06:33N 37°57' E 023°38'0 0.1
2017-Jan-04 05:33N 37°57' E 023°39'1 0.1
2017-Jan-03 17:33N 37°56' E 023°37'1313.3
2017-Jan-03 16:33N 37°46' E 023°25'1 1.2
2017-Jan-03 15:33N 37°45' E 023°25'1312.9
2017-Jan-03 14:33N 37°55' E 023°36'1 1.2
2017-Jan-03 13:33N 37°56' E 023°36'1313.1
2017-Jan-03 12:33N 37°46' E 023°25'3 2.9
2017-Jan-03 11:33N 37°48' E 023°28'1211.8
2017-Jan-03 10:33N 37°57' E 023°38'5 4.5
2017-Jan-03 09:33N 37°53' E 023°34'1110.9
2017-Jan-03 08:32N 37°45' E 023°25'4 3.7
2017-Jan-03 07:33N 37°48' E 023°28'1212.2
2017-Jan-03 06:33N 37°57' E 023°38'0 0.1
2017-Jan-03 05:31N 37°57' E 023°38'1 0.1
2017-Jan-02 17:34N 37°56' E 023°37'1413.5
2017-Jan-02 16:33N 37°46' E 023°25'1 1.5
2017-Jan-02 15:33N 37°45' E 023°25'1312.8
2017-Jan-02 14:34N 37°55' E 023°35'2 2.3
2017-Jan-02 13:34N 37°56' E 023°37'1313.2
2017-Jan-02 12:33N 37°47' E 023°26'2 2.0
2017-Jan-02 11:33N 37°45' E 023°25'1312.7
2017-Jan-02 10:34N 37°54' E 023°35'2 2.2
2017-Jan-02 09:33N 37°56' E 023°37'1312.9
2017-Jan-02 08:33N 37°47' E 023°26'2 2.0
2017-Jan-02 07:33N 37°48' E 023°28'1212.1
2017-Jan-02 06:33N 37°57' E 023°38'2 0.1
2016-Dec-31 17:33N 37°55' E 023°37'1312.8
2016-Dec-31 16:33N 37°46' E 023°25'1 1.5
2016-Dec-31 15:33N 37°45' E 023°25'1312.9
2016-Dec-31 14:33N 37°54' E 023°36'2 1.7
2016-Dec-31 13:33N 37°56' E 023°37'1312.9
2016-Dec-31 12:33N 37°47' E 023°26'2 1.7
2016-Dec-31 11:33N 37°45' E 023°25'1312.9
2016-Dec-31 10:33N 37°55' E 023°36'  

Dump ship's entire track history